Time;durP1;ratioP1;P1;durP2;ratioP2;P2;SDS_P1;SDS_P2;PMS_P1;PMS_P2;Temp;Humidity;BMP_temperature;BMP_pressure;BME280_temperature;BME280_humidity;BME280_pressure;Samples;Min_cycle;Max_cycle;Signal;HPM_P1;HPM_P2
2024/01/10 00:01:26;;;;;;;27.13;25.60;;;;;;;;;;5035155;28;20574;-58
2024/01/10 00:03:55;;;;;;;25.67;23.70;;;;;;;;;;5031060;28;20025;-58
2024/01/10 00:06:20;;;;;;;28.45;26.15;;;;;;;;;;5029570;28;20049;-58
2024/01/10 00:08:45;;;;;;;28.92;26.42;;;;;;;;;;5032237;28;20494;-64
2024/01/10 00:11:11;;;;;;;27.50;25.88;;;;;;;;;;5032798;28;20490;-64
2024/01/10 00:13:37;;;;;;;28.45;26.60;;;;;;;;;;5032490;28;20060;-58
2024/01/10 00:16:02;;;;;;;26.05;24.33;;;;;;;;;;5033464;28;20037;-65
2024/01/10 00:18:27;;;;;;;26.85;25.23;;;;;;;;;;5030693;28;20110;-58
2024/01/10 00:20:55;;;;;;;25.08;23.58;;;;;;;;;;5029206;28;20044;-58
2024/01/10 00:23:22;;;;;;;27.40;25.80;;;;;;;;;;5031703;28;20112;-58
2024/01/10 00:25:47;;;;;;;28.95;27.10;;;;;;;;;;5030545;28;20143;-64
2024/01/10 00:28:13;;;;;;;31.42;29.13;;;;;;;;;;5034458;28;20121;-65
2024/01/10 00:30:39;;;;;;;28.05;26.25;;;;;;;;;;5031707;28;20521;-59
2024/01/10 00:33:05;;;;;;;28.88;27.17;;;;;;;;;;5029280;28;20048;-58
2024/01/10 00:35:30;;;;;;;29.40;27.48;;;;;;;;;;5031760;28;20044;-58
2024/01/10 00:37:56;;;;;;;26.75;25.15;;;;;;;;;;5033514;28;20045;-59
2024/01/10 00:40:21;;;;;;;26.92;25.17;;;;;;;;;;5033852;28;20064;-59
2024/01/10 00:42:47;;;;;;;28.00;26.42;;;;;;;;;;5034211;28;20034;-66
2024/01/10 00:45:13;;;;;;;28.55;26.58;;;;;;;;;;5031162;28;20116;-66
2024/01/10 00:47:38;;;;;;;27.98;26.27;;;;;;;;;;5030332;28;20033;-65
2024/01/10 00:50:04;;;;;;;27.85;26.25;;;;;;;;;;5032369;28;20478;-65
2024/01/10 00:52:29;;;;;;;28.02;26.33;;;;;;;;;;5028931;28;20040;-59
2024/01/10 00:54:54;;;;;;;29.10;27.00;;;;;;;;;;5030197;28;20358;-65
2024/01/10 00:57:20;;;;;;;28.52;26.83;;;;;;;;;;5031660;28;20116;-65
2024/01/10 00:59:45;;;;;;;31.80;29.80;;;;;;;;;;5031174;28;20037;-65
2024/01/10 01:02:10;;;;;;;26.67;25.17;;;;;;;;;;5030214;28;20215;-65
2024/01/10 01:04:36;;;;;;;26.83;25.23;;;;;;;;;;5027075;28;20033;-66
2024/01/10 01:07:01;;;;;;;29.63;27.48;;;;;;;;;;5033064;28;20040;-65
2024/01/10 01:09:26;;;;;;;30.63;28.48;;;;;;;;;;5032548;28;20095;-65
2024/01/10 01:11:52;;;;;;;26.92;25.27;;;;;;;;;;5033052;28;20033;-64
2024/01/10 01:14:17;;;;;;;28.95;27.25;;;;;;;;;;5034203;28;20104;-65
2024/01/10 01:16:43;;;;;;;31.05;29.23;;;;;;;;;;5033345;28;20056;-65
2024/01/10 01:19:08;;;;;;;30.25;28.45;;;;;;;;;;5030656;28;20825;-65
2024/01/10 01:21:33;;;;;;;29.65;27.67;;;;;;;;;;5026919;28;20399;-65
2024/01/10 01:23:59;;;;;;;28.08;26.17;;;;;;;;;;5032305;28;20116;-65
2024/01/10 01:26:24;;;;;;;29.02;27.15;;;;;;;;;;5025867;28;20041;-65
2024/01/10 01:28:49;;;;;;;29.60;27.75;;;;;;;;;;5028729;28;20057;-66
2024/01/10 01:31:15;;;;;;;29.50;27.45;;;;;;;;;;5032010;28;20104;-66
2024/01/10 01:33:40;;;;;;;30.88;29.05;;;;;;;;;;5031265;28;20065;-65
2024/01/10 01:36:06;;;;;;;28.33;26.63;;;;;;;;;;5031039;28;20135;-65
2024/01/10 01:38:31;;;;;;;30.10;28.27;;;;;;;;;;5029932;28;20037;-65
2024/01/10 01:40:57;;;;;;;29.85;28.15;;;;;;;;;;5026488;28;20055;-66
2024/01/10 01:43:24;;;;;;;31.02;28.90;;;;;;;;;;5034298;28;20032;-65
2024/01/10 01:45:55;;;;;;;29.63;27.88;;;;;;;;;;5027407;28;20056;-65
2024/01/10 01:48:21;;;;;;;29.33;27.52;;;;;;;;;;5030283;28;20036;-64
2024/01/10 01:50:50;;;;;;;29.48;27.30;;;;;;;;;;5029806;28;20467;-63
2024/01/10 01:53:15;;;;;;;32.15;30.25;;;;;;;;;;5030050;28;20039;-65
2024/01/10 01:55:44;;;;;;;30.00;28.10;;;;;;;;;;5024921;28;20032;-65
2024/01/10 01:58:10;;;;;;;30.38;27.67;;;;;;;;;;5026931;28;20148;-65
2024/01/10 02:00:35;;;;;;;32.10;29.83;;;;;;;;;;5029225;28;20021;-65
2024/01/10 02:03:01;;;;;;;30.13;28.33;;;;;;;;;;5032343;28;20231;-64
2024/01/10 02:05:26;;;;;;;31.50;29.42;;;;;;;;;;5031975;28;20151;-65
2024/01/10 02:07:52;;;;;;;31.60;29.52;;;;;;;;;;5031078;28;20093;-65
2024/01/10 02:10:19;;;;;;;33.15;31.15;;;;;;;;;;5028650;28;20033;-65
2024/01/10 02:12:44;;;;;;;29.60;27.70;;;;;;;;;;5029885;28;20047;-65
2024/01/10 02:15:10;;;;;;;32.63;30.25;;;;;;;;;;5029138;28;20037;-64
2024/01/10 02:17:35;;;;;;;32.03;29.95;;;;;;;;;;5031906;28;20323;-64
2024/01/10 02:20:15;;;;;;;32.92;30.65;;;;;;;;;;5025882;28;20040;-65
2024/01/10 02:22:41;;;;;;;32.58;30.23;;;;;;;;;;5031341;28;20260;-65
2024/01/10 02:25:07;;;;;;;31.00;29.05;;;;;;;;;;5028382;28;20132;-65
2024/01/10 02:27:35;;;;;;;34.33;32.25;;;;;;;;;;5029418;28;20029;-65
2024/01/10 02:30:02;;;;;;;31.50;29.80;;;;;;;;;;5030102;28;20047;-65
2024/01/10 02:32:27;;;;;;;30.05;28.33;;;;;;;;;;5028733;28;20038;-58
2024/01/10 02:34:52;;;;;;;31.23;29.17;;;;;;;;;;5039744;28;20399;-58
2024/01/10 02:37:18;;;;;;;29.52;27.80;;;;;;;;;;5026851;28;20094;-65
2024/01/10 02:39:43;;;;;;;28.80;26.98;;;;;;;;;;5028506;28;20055;-66
2024/01/10 02:42:08;;;;;;;27.30;25.50;;;;;;;;;;5032320;28;20041;-64
2024/01/10 02:44:33;;;;;;;27.77;25.98;;;;;;;;;;5030298;28;20120;-64
2024/01/10 02:46:59;;;;;;;31.35;29.45;;;;;;;;;;5027936;28;20169;-65
2024/01/10 02:49:24;;;;;;;29.42;27.63;;;;;;;;;;5029019;28;20029;-64
2024/01/10 02:51:49;;;;;;;29.15;27.25;;;;;;;;;;5027317;28;20379;-63
2024/01/10 02:54:15;;;;;;;32.33;30.08;;;;;;;;;;5028737;28;20041;-64
2024/01/10 02:56:40;;;;;;;30.17;28.17;;;;;;;;;;5028490;28;20052;-66
2024/01/10 02:59:05;;;;;;;30.67;28.30;;;;;;;;;;5032039;28;20045;-66
2024/01/10 03:01:31;;;;;;;28.67;26.58;;;;;;;;;;5029007;28;20056;-65
2024/01/10 03:03:56;;;;;;;29.05;26.98;;;;;;;;;;5028714;28;20044;-67
2024/01/10 03:06:21;;;;;;;27.70;25.95;;;;;;;;;;5030591;28;20414;-63
2024/01/10 03:08:46;;;;;;;30.02;28.25;;;;;;;;;;5033405;28;20645;-64
2024/01/10 03:11:12;;;;;;;26.33;24.80;;;;;;;;;;5024737;28;20486;-64
2024/01/10 03:13:38;;;;;;;30.35;28.25;;;;;;;;;;5029601;28;20111;-63
2024/01/10 03:16:04;;;;;;;30.00;27.95;;;;;;;;;;5027631;28;20467;-64
2024/01/10 03:18:29;;;;;;;29.38;27.70;;;;;;;;;;5029490;28;20048;-64
2024/01/10 03:20:55;;;;;;;28.42;26.73;;;;;;;;;;5027206;28;20057;-64
2024/01/10 03:23:21;;;;;;;31.80;29.73;;;;;;;;;;5026420;28;20051;-64
2024/01/10 03:25:47;;;;;;;31.02;29.00;;;;;;;;;;5024220;28;20037;-65
2024/01/10 03:28:17;;;;;;;29.27;27.00;;;;;;;;;;5034671;28;20047;-64
2024/01/10 03:30:42;;;;;;;28.83;27.05;;;;;;;;;;5032350;28;20068;-64
2024/01/10 03:33:07;;;;;;;30.63;28.63;;;;;;;;;;5030759;28;20079;-64
2024/01/10 03:35:33;;;;;;;27.27;25.75;;;;;;;;;;5031859;28;20362;-63
2024/01/10 03:37:58;;;;;;;27.55;25.88;;;;;;;;;;5032099;28;20029;-65
2024/01/10 03:40:23;;;;;;;27.27;25.67;;;;;;;;;;5030850;28;20071;-65
2024/01/10 03:42:49;;;;;;;31.08;29.02;;;;;;;;;;5035943;28;20037;-66
2024/01/10 03:45:16;;;;;;;28.45;26.67;;;;;;;;;;5031808;28;20052;-63
2024/01/10 03:47:42;;;;;;;31.73;29.60;;;;;;;;;;5029462;28;20071;-63
2024/01/10 03:50:08;;;;;;;27.23;25.52;;;;;;;;;;5030031;28;20091;-65
2024/01/10 03:52:33;;;;;;;28.38;26.77;;;;;;;;;;5029046;28;20029;-65
2024/01/10 03:54:59;;;;;;;31.60;29.70;;;;;;;;;;5032476;28;20029;-65
2024/01/10 03:57:24;;;;;;;29.75;27.90;;;;;;;;;;5031307;28;20037;-65
2024/01/10 03:59:50;;;;;;;31.02;28.98;;;;;;;;;;5033871;28;20041;-65
2024/01/10 04:02:15;;;;;;;26.00;24.35;;;;;;;;;;5030782;28;20767;-65
2024/01/10 04:04:41;;;;;;;30.83;28.67;;;;;;;;;;5033487;28;20033;-66
2024/01/10 04:07:06;;;;;;;28.13;26.42;;;;;;;;;;5031491;28;20033;-65
2024/01/10 04:09:32;;;;;;;29.75;27.70;;;;;;;;;;5033814;28;20260;-65
2024/01/10 04:11:57;;;;;;;28.48;26.85;;;;;;;;;;5031263;28;20625;-65
2024/01/10 04:14:22;;;;;;;30.13;28.23;;;;;;;;;;5030494;28;20046;-64
2024/01/10 04:16:48;;;;;;;30.40;28.52;;;;;;;;;;5028959;28;20942;-64
2024/01/10 04:19:13;;;;;;;27.65;26.02;;;;;;;;;;5031838;28;20037;-63
2024/01/10 04:21:39;;;;;;;28.23;26.48;;;;;;;;;;5030317;28;20357;-63
2024/01/10 04:24:04;;;;;;;30.88;28.95;;;;;;;;;;5029289;28;20112;-63
2024/01/10 04:26:30;;;;;;;28.30;26.50;;;;;;;;;;5031136;28;20155;-65
2024/01/10 04:28:55;;;;;;;26.60;24.95;;;;;;;;;;5030418;28;20122;-63
2024/01/10 04:31:21;;;;;;;29.55;27.60;;;;;;;;;;5029715;28;20045;-65
2024/01/10 04:33:46;;;;;;;29.23;27.05;;;;;;;;;;5029966;28;20499;-65
2024/01/10 04:36:11;;;;;;;27.48;25.60;;;;;;;;;;5031849;28;20025;-65
2024/01/10 04:38:37;;;;;;;28.45;26.63;;;;;;;;;;5032125;28;20040;-65
2024/01/10 04:41:02;;;;;;;27.10;24.85;;;;;;;;;;5025442;28;20040;-66
2024/01/10 04:43:28;;;;;;;28.88;27.20;;;;;;;;;;5032791;28;20459;-65
2024/01/10 04:45:53;;;;;;;31.05;29.02;;;;;;;;;;5032168;28;20347;-64
2024/01/10 04:48:18;;;;;;;27.95;26.23;;;;;;;;;;5030870;28;20123;-65
2024/01/10 04:50:44;;;;;;;25.38;23.80;;;;;;;;;;5027386;28;20030;-65
2024/01/10 04:53:09;;;;;;;26.67;24.98;;;;;;;;;;5025828;28;20029;-66
2024/01/10 04:55:34;;;;;;;27.23;25.60;;;;;;;;;;5030809;28;20045;-64
2024/01/10 04:58:00;;;;;;;29.63;27.67;;;;;;;;;;5029795;28;20780;-64
2024/01/10 05:00:25;;;;;;;30.88;28.63;;;;;;;;;;5033254;28;20167;-58
2024/01/10 05:02:50;;;;;;;26.90;24.65;;;;;;;;;;5028695;28;20126;-63
2024/01/10 05:05:16;;;;;;;27.83;26.13;;;;;;;;;;5029134;28;20349;-57
2024/01/10 05:07:41;;;;;;;26.92;25.08;;;;;;;;;;5029559;28;20471;-59
2024/01/10 05:10:07;;;;;;;27.88;26.17;;;;;;;;;;5027794;28;20051;-60
2024/01/10 05:12:32;;;;;;;26.77;25.27;;;;;;;;;;5029908;28;20474;-57
2024/01/10 05:14:57;;;;;;;27.77;25.88;;;;;;;;;;5029140;28;20122;-58
2024/01/10 05:17:23;;;;;;;27.65;25.40;;;;;;;;;;5033884;28;20120;-57
2024/01/10 05:19:48;;;;;;;27.60;25.77;;;;;;;;;;5028098;28;20048;-59
2024/01/10 05:22:13;;;;;;;28.35;26.65;;;;;;;;;;5030622;28;20044;-65
2024/01/10 05:24:39;;;;;;;29.95;27.85;;;;;;;;;;5027227;28;20032;-64
2024/01/10 05:27:04;;;;;;;29.98;28.05;;;;;;;;;;5033683;28;20052;-65
2024/01/10 05:29:30;;;;;;;29.58;27.50;;;;;;;;;;5034197;28;20029;-65
2024/01/10 05:31:55;;;;;;;34.78;32.40;;;;;;;;;;5033490;28;20479;-65
2024/01/10 05:34:20;;;;;;;29.63;27.83;;;;;;;;;;5032446;28;20033;-66
2024/01/10 05:36:46;;;;;;;30.05;28.08;;;;;;;;;;5030094;28;20044;-63
2024/01/10 05:39:15;;;;;;;29.50;27.58;;;;;;;;;;5031131;28;20036;-64
2024/01/10 05:41:41;;;;;;;31.70;29.65;;;;;;;;;;5027921;28;20052;-60
2024/01/10 05:44:06;;;;;;;33.75;31.50;;;;;;;;;;5028676;28;20407;-57
2024/01/10 05:46:31;;;;;;;31.73;29.27;;;;;;;;;;5029803;28;20099;-58
2024/01/10 05:48:57;;;;;;;30.30;28.10;;;;;;;;;;5031261;28;20526;-63
2024/01/10 05:51:22;;;;;;;33.60;31.55;;;;;;;;;;5032815;28;20025;-60
2024/01/10 05:53:47;;;;;;;35.38;33.20;;;;;;;;;;5033515;28;20033;-65
2024/01/10 05:56:13;;;;;;;30.75;28.92;;;;;;;;;;5031991;28;20043;-58
2024/01/10 05:58:39;;;;;;;30.92;28.92;;;;;;;;;;5031746;28;20048;-58
2024/01/10 06:01:09;;;;;;;32.15;29.65;;;;;;;;;;5032629;28;20032;-58
2024/01/10 06:03:35;;;;;;;31.27;29.00;;;;;;;;;;5028244;28;20025;-58
2024/01/10 06:06:00;;;;;;;33.45;30.80;;;;;;;;;;5029701;28;20540;-57
2024/01/10 06:08:26;;;;;;;31.35;29.42;;;;;;;;;;5031414;28;20037;-65
2024/01/10 06:10:52;;;;;;;31.40;29.40;;;;;;;;;;5028530;28;20036;-65
2024/01/10 06:13:17;;;;;;;33.10;29.77;;;;;;;;;;5029601;28;20044;-65
2024/01/10 06:15:42;;;;;;;30.85;28.60;;;;;;;;;;5029268;28;20029;-64
2024/01/10 06:18:08;;;;;;;31.17;28.30;;;;;;;;;;5030105;28;20025;-63
2024/01/10 06:20:35;;;;;;;32.10;29.92;;;;;;;;;;5032179;28;20565;-63
2024/01/10 06:23:00;;;;;;;30.30;28.42;;;;;;;;;;5029718;28;20048;-64
2024/01/10 06:25:27;;;;;;;29.67;27.73;;;;;;;;;;5031588;28;20029;-63
2024/01/10 06:27:52;;;;;;;31.70;29.63;;;;;;;;;;5029857;28;20036;-64
2024/01/10 06:30:18;;;;;;;34.78;31.33;;;;;;;;;;5028269;28;20039;-63
2024/01/10 06:32:43;;;;;;;30.90;28.70;;;;;;;;;;5027074;28;20072;-64
2024/01/10 06:35:09;;;;;;;29.33;27.02;;;;;;;;;;5031349;28;20037;-64
2024/01/10 06:37:35;;;;;;;29.65;27.58;;;;;;;;;;5030228;28;20033;-65
2024/01/10 06:40:00;;;;;;;29.98;28.00;;;;;;;;;;5025594;28;20131;-64
2024/01/10 06:42:26;;;;;;;26.90;25.30;;;;;;;;;;5023281;28;20041;-64
2024/01/10 06:44:51;;;;;;;27.60;25.73;;;;;;;;;;5027324;28;20025;-64
2024/01/10 06:47:17;;;;;;;26.42;24.70;;;;;;;;;;5029617;28;20045;-65
2024/01/10 06:49:42;;;;;;;28.50;26.50;;;;;;;;;;5024316;28;20055;-65
2024/01/10 06:52:08;;;;;;;28.40;26.30;;;;;;;;;;5026026;28;20032;-64
2024/01/10 06:54:33;;;;;;;29.45;27.42;;;;;;;;;;5019448;28;20208;-65
2024/01/10 06:56:58;;;;;;;29.42;27.27;;;;;;;;;;5026420;28;20026;-65
2024/01/10 06:59:24;;;;;;;25.98;24.40;;;;;;;;;;5030938;28;20533;-65
2024/01/10 07:01:53;;;;;;;27.88;26.15;;;;;;;;;;5029512;28;20119;-64
2024/01/10 07:04:18;;;;;;;26.20;24.63;;;;;;;;;;5030842;28;20080;-64
2024/01/10 07:06:44;;;;;;;30.60;28.67;;;;;;;;;;5030880;28;20233;-65
2024/01/10 07:09:10;;;;;;;32.25;29.33;;;;;;;;;;5031968;28;20037;-64
2024/01/10 07:11:35;;;;;;;27.38;25.67;;;;;;;;;;5032756;28;20405;-66
2024/01/10 07:14:00;;;;;;;26.52;24.65;;;;;;;;;;5031138;28;20409;-65
2024/01/10 07:16:26;;;;;;;29.25;27.27;;;;;;;;;;5027983;28;20091;-66
2024/01/10 07:18:51;;;;;;;29.85;27.45;;;;;;;;;;5034817;28;20036;-65
2024/01/10 07:21:17;;;;;;;28.02;25.88;;;;;;;;;;5033380;28;20058;-65
2024/01/10 07:23:43;;;;;;;28.25;26.55;;;;;;;;;;5030884;28;20040;-64
2024/01/10 07:26:08;;;;;;;27.63;25.75;;;;;;;;;;5030487;28;20044;-64
2024/01/10 07:28:34;;;;;;;31.33;28.73;;;;;;;;;;5030307;28;20025;-65
2024/01/10 07:31:02;;;;;;;29.88;27.85;;;;;;;;;;5030851;28;20470;-65
2024/01/10 07:33:27;;;;;;;27.67;26.05;;;;;;;;;;5028086;28;20033;-64
2024/01/10 07:35:55;;;;;;;31.80;29.58;;;;;;;;;;5027115;28;20049;-66
2024/01/10 07:38:20;;;;;;;26.27;24.77;;;;;;;;;;5034312;28;20028;-64
2024/01/10 07:40:46;;;;;;;27.40;25.67;;;;;;;;;;5029319;28;20573;-66
2024/01/10 07:43:11;;;;;;;29.65;27.40;;;;;;;;;;5032863;28;20048;-65
2024/01/10 07:45:36;;;;;;;30.10;28.40;;;;;;;;;;5022664;28;20025;-64
2024/01/10 07:48:02;;;;;;;28.92;26.80;;;;;;;;;;5028539;28;20036;-64
2024/01/10 07:50:27;;;;;;;30.40;28.50;;;;;;;;;;5029642;28;20041;-64
2024/01/10 07:52:53;;;;;;;27.30;25.60;;;;;;;;;;5027235;28;20459;-65
2024/01/10 07:55:18;;;;;;;31.00;28.95;;;;;;;;;;5027389;28;20038;-64
2024/01/10 07:57:44;;;;;;;29.30;26.70;;;;;;;;;;5028637;28;20033;-64
2024/01/10 08:00:10;;;;;;;29.08;27.13;;;;;;;;;;5030239;28;20662;-64
2024/01/10 08:02:36;;;;;;;28.40;26.55;;;;;;;;;;5034172;28;20052;-64
2024/01/10 08:05:05;;;;;;;30.63;28.60;;;;;;;;;;5030622;28;20681;-63
2024/01/10 08:07:39;;;;;;;28.08;26.25;;;;;;;;;;5030931;28;20045;-63
2024/01/10 08:10:05;;;;;;;27.70;25.67;;;;;;;;;;5030288;28;20044;-64
2024/01/10 08:12:31;;;;;;;31.40;29.60;;;;;;;;;;5030693;28;20032;-63
2024/01/10 08:14:57;;;;;;;29.08;27.23;;;;;;;;;;5028798;28;20681;-65
2024/01/10 08:17:23;;;;;;;31.45;29.38;;;;;;;;;;5033486;28;20030;-64
2024/01/10 08:19:48;;;;;;;31.45;29.15;;;;;;;;;;5030087;28;20102;-64
2024/01/10 08:22:14;;;;;;;33.53;31.15;;;;;;;;;;5029107;28;21124;-64
2024/01/10 08:24:40;;;;;;;31.05;29.08;;;;;;;;;;5028403;28;20056;-65
2024/01/10 08:27:05;;;;;;;34.75;32.20;;;;;;;;;;5030495;28;20037;-65
2024/01/10 08:29:31;;;;;;;32.05;30.15;;;;;;;;;;5032334;28;20033;-65
2024/01/10 08:31:57;;;;;;;32.90;31.00;;;;;;;;;;5032344;28;20029;-65
2024/01/10 08:34:23;;;;;;;31.65;29.58;;;;;;;;;;5034565;28;20029;-64
2024/01/10 08:36:51;;;;;;;32.05;30.15;;;;;;;;;;5028075;28;20063;-64
2024/01/10 08:39:17;;;;;;;36.08;33.53;;;;;;;;;;5031497;28;20085;-66
2024/01/10 08:41:44;;;;;;;31.30;29.33;;;;;;;;;;5031637;28;20045;-66
2024/01/10 08:44:10;;;;;;;30.92;29.10;;;;;;;;;;5030437;28;20451;-65
2024/01/10 08:46:35;;;;;;;32.45;30.50;;;;;;;;;;5032816;28;20029;-66
2024/01/10 08:49:01;;;;;;;29.92;27.95;;;;;;;;;;5031658;28;20091;-65
2024/01/10 08:51:27;;;;;;;35.28;33.08;;;;;;;;;;5029057;28;20383;-65
2024/01/10 08:53:52;;;;;;;35.13;32.50;;;;;;;;;;5022828;28;20041;-66
2024/01/10 08:56:19;;;;;;;31.58;29.48;;;;;;;;;;5034508;28;20052;-65
2024/01/10 08:58:45;;;;;;;32.20;29.83;;;;;;;;;;5030866;28;20037;-66
2024/01/10 09:01:10;;;;;;;28.63;27.00;;;;;;;;;;5026063;28;20041;-66
2024/01/10 09:03:37;;;;;;;31.55;29.55;;;;;;;;;;5029760;28;20041;-66
2024/01/10 09:06:03;;;;;;;31.75;29.40;;;;;;;;;;5030650;28;20070;-67
2024/01/10 09:08:29;;;;;;;31.33;29.17;;;;;;;;;;5030589;28;20037;-66
2024/01/10 09:10:55;;;;;;;36.58;34.38;;;;;;;;;;5026302;28;20028;-66
2024/01/10 09:13:20;;;;;;;36.53;34.30;;;;;;;;;;5033342;28;20578;-66
2024/01/10 09:15:46;;;;;;;32.50;30.55;;;;;;;;;;5029510;28;20241;-65
2024/01/10 09:18:11;;;;;;;30.15;28.25;;;;;;;;;;5029967;28;20036;-66
2024/01/10 09:20:37;;;;;;;32.92;30.45;;;;;;;;;;5030849;28;20364;-65
2024/01/10 09:23:03;;;;;;;35.55;33.00;;;;;;;;;;5032820;28;20060;-65
2024/01/10 09:25:28;;;;;;;33.35;31.45;;;;;;;;;;5032816;28;20141;-65
2024/01/10 09:27:54;;;;;;;37.35;34.15;;;;;;;;;;5031801;28;20033;-65
2024/01/10 09:30:19;;;;;;;35.08;32.65;;;;;;;;;;5029763;28;20040;-65
2024/01/10 09:32:45;;;;;;;33.80;31.63;;;;;;;;;;5030430;28;20418;-64
2024/01/10 09:35:11;;;;;;;34.90;32.83;;;;;;;;;;5029850;28;20041;-64
2024/01/10 09:37:37;;;;;;;38.15;35.22;;;;;;;;;;5027003;28;20034;-64
2024/01/10 09:40:03;;;;;;;34.38;32.30;;;;;;;;;;5027382;28;20467;-66
2024/01/10 09:42:31;;;;;;;34.90;32.15;;;;;;;;;;5030592;28;20132;-65
2024/01/10 09:44:57;;;;;;;34.78;32.58;;;;;;;;;;5027901;28;20402;-64
2024/01/10 09:47:23;;;;;;;34.03;32.03;;;;;;;;;;5028704;28;20033;-65
2024/01/10 09:49:49;;;;;;;35.38;33.20;;;;;;;;;;5027454;28;20034;-65
2024/01/10 09:52:24;;;;;;;33.85;31.48;;;;;;;;;;5025959;28;20328;-65
2024/01/10 09:54:54;;;;;;;35.50;33.40;;;;;;;;;;5030765;28;20040;-65
2024/01/10 09:57:20;;;;;;;34.33;32.20;;;;;;;;;;5033049;28;20070;-65
2024/01/10 09:59:47;;;;;;;35.10;32.85;;;;;;;;;;5029811;28;20041;-65
2024/01/10 10:02:13;;;;;;;34.13;31.60;;;;;;;;;;5030038;28;20698;-65
2024/01/10 10:04:41;;;;;;;36.47;33.47;;;;;;;;;;5031342;28;20498;-65
2024/01/10 10:07:07;;;;;;;33.65;31.40;;;;;;;;;;5026891;28;20094;-65
2024/01/10 10:09:32;;;;;;;33.90;31.90;;;;;;;;;;5028484;28;20393;-65
2024/01/10 10:11:57;;;;;;;34.42;32.28;;;;;;;;;;5028905;28;20056;-65
2024/01/10 10:14:26;;;;;;;32.90;30.77;;;;;;;;;;5029921;28;20061;-65
2024/01/10 10:16:51;;;;;;;32.35;30.55;;;;;;;;;;5029212;28;20045;-65
2024/01/10 10:19:24;;;;;;;32.55;30.25;;;;;;;;;;5031513;28;20046;-65
2024/01/10 10:21:49;;;;;;;32.53;30.27;;;;;;;;;;5029169;28;20112;-65
2024/01/10 10:24:15;;;;;;;30.70;28.95;;;;;;;;;;5023702;28;20033;-66
2024/01/10 10:26:41;;;;;;;30.83;29.05;;;;;;;;;;5030647;28;20132;-65
2024/01/10 10:29:06;;;;;;;31.00;29.15;;;;;;;;;;5029241;28;20034;-66
2024/01/10 10:31:32;;;;;;;32.70;28.48;;;;;;;;;;5032376;28;20366;-66
2024/01/10 10:33:59;;;;;;;30.90;28.88;;;;;;;;;;5029723;28;20053;-65
2024/01/10 10:36:25;;;;;;;32.03;30.05;;;;;;;;;;5027367;28;20371;-65
2024/01/10 10:38:50;;;;;;;29.48;27.50;;;;;;;;;;5030303;28;20043;-67
2024/01/10 10:41:16;;;;;;;32.17;30.08;;;;;;;;;;5032159;28;20463;-67
2024/01/10 10:43:42;;;;;;;28.33;26.73;;;;;;;;;;5029719;28;20026;-66
2024/01/10 10:46:12;;;;;;;27.98;26.38;;;;;;;;;;5032326;28;20071;-67
2024/01/10 10:48:38;;;;;;;28.63;26.42;;;;;;;;;;5035073;28;20055;-67
2024/01/10 10:51:14;;;;;;;31.17;29.13;;;;;;;;;;5033363;28;20391;-67
2024/01/10 10:53:45;;;;;;;27.77;26.08;;;;;;;;;;5033890;28;20025;-67
2024/01/10 10:56:11;;;;;;;27.80;25.93;;;;;;;;;;5029408;28;20029;-67
2024/01/10 10:58:43;;;;;;;26.83;25.13;;;;;;;;;;5035490;28;20120;-67
2024/01/10 11:01:11;;;;;;;;;;;;;;;;;;5033981;28;20111;-67
2024/01/10 11:03:39;;;;;;;27.60;25.98;;;;;;;;;;5032263;28;19921;-67
2024/01/10 11:06:06;;;;;;;27.55;25.67;;;;;;;;;;5032285;28;20414;-67
2024/01/10 11:08:46;;;;;;;25.77;24.30;;;;;;;;;;5028821;28;20116;-67
2024/01/10 11:11:39;;;;;;;28.20;26.17;;;;;;;;;;5034038;28;20036;-67
2024/01/10 11:14:14;;;;;;;27.40;25.55;;;;;;;;;;5028113;28;20052;-67
2024/01/10 11:16:57;;;;;;;30.75;28.80;;;;;;;;;;5046422;28;20033;-67
2024/01/10 11:19:44;;;;;;;27.55;25.65;;;;;;;;;;5032619;28;20037;-66
2024/01/10 11:22:28;;;;;;;26.65;25.02;;;;;;;;;;5031465;28;20091;-66
2024/01/10 11:24:55;;;;;;;30.13;27.65;;;;;;;;;;5026213;28;20102;-68
2024/01/10 11:27:20;;;;;;;25.67;24.15;;;;;;;;;;5032038;28;20443;-68
2024/01/10 11:29:47;;;;;;;26.30;24.52;;;;;;;;;;5034702;28;20218;-68
2024/01/10 11:32:14;;;;;;;27.70;25.77;;;;;;;;;;5032171;28;20037;-61
2024/01/10 11:35:01;;;;;;;25.42;23.63;;;;;;;;;;5033372;28;20044;-60
2024/01/10 11:37:46;;;;;;;24.02;22.52;;;;;;;;;;5030982;28;20046;-60
2024/01/10 11:40:12;;;;;;;24.90;23.20;;;;;;;;;;5031982;28;20048;-60
2024/01/10 11:42:45;;;;;;;26.75;24.75;;;;;;;;;;5033243;28;20049;-60
2024/01/10 11:45:29;;;;;;;25.88;24.02;;;;;;;;;;5032451;28;20029;-60
2024/01/10 11:47:56;;;;;;;25.42;23.85;;;;;;;;;;5031461;28;20038;-60
2024/01/10 11:50:23;;;;;;;29.23;27.52;;;;;;;;;;5029929;28;20218;-61
2024/01/10 11:52:53;;;;;;;31.85;28.42;;;;;;;;;;5033471;28;20517;-61
2024/01/10 11:55:47;;;;;;;28.77;26.98;;;;;;;;;;5028661;28;20049;-61
2024/01/10 11:58:12;;;;;;;27.48;25.80;;;;;;;;;;5034104;28;20049;-60
2024/01/10 12:00:39;;;;;;;28.77;26.65;;;;;;;;;;5034071;28;20042;-61
2024/01/10 12:03:05;;;;;;;28.80;26.85;;;;;;;;;;5033166;28;20059;-61
2024/01/10 12:05:30;;;;;;;27.92;26.05;;;;;;;;;;5029879;28;20056;-61
2024/01/10 12:07:55;;;;;;;31.92;30.05;;;;;;;;;;5031216;28;20091;-61
2024/01/10 12:10:21;;;;;;;29.45;27.85;;;;;;;;;;5031811;28;20033;-61
2024/01/10 12:12:46;;;;;;;28.95;27.25;;;;;;;;;;5033558;28;20051;-61
2024/01/10 12:15:11;;;;;;;28.95;27.15;;;;;;;;;;5030585;28;20305;-61
2024/01/10 12:17:37;;;;;;;31.35;29.35;;;;;;;;;;5028457;28;20029;-61
2024/01/10 12:20:02;;;;;;;32.40;30.27;;;;;;;;;;5029327;28;20043;-61
2024/01/10 12:22:28;;;;;;;31.67;29.67;;;;;;;;;;5031915;28;20331;-61
2024/01/10 12:24:53;;;;;;;28.95;27.25;;;;;;;;;;5030976;28;20041;-61
2024/01/10 12:27:20;;;;;;;31.20;29.30;;;;;;;;;;5032922;28;20033;-61
2024/01/10 12:29:50;;;;;;;33.88;30.80;;;;;;;;;;5030059;28;20552;-61
2024/01/10 12:32:18;;;;;;;33.45;31.63;;;;;;;;;;5029389;28;20040;-61
2024/01/10 12:34:43;;;;;;;37.13;34.55;;;;;;;;;;5026425;28;20029;-61
2024/01/10 12:37:10;;;;;;;33.95;31.75;;;;;;;;;;5030598;28;20029;-61
2024/01/10 12:39:37;;;;;;;38.45;36.35;;;;;;;;;;5031782;28;20048;-61
2024/01/10 12:42:03;;;;;;;33.33;31.42;;;;;;;;;;5032092;28;20040;-62
2024/01/10 12:44:32;;;;;;;36.05;33.95;;;;;;;;;;5030205;28;20146;-62
2024/01/10 12:46:57;;;;;;;37.20;35.03;;;;;;;;;;5031573;28;20418;-62
2024/01/10 12:49:23;;;;;;;35.75;33.75;;;;;;;;;;5031846;28;20159;-62
2024/01/10 12:51:48;;;;;;;38.95;36.42;;;;;;;;;;5033390;28;20374;-62
2024/01/10 12:54:16;;;;;;;37.03;34.63;;;;;;;;;;5032449;28;20129;-62
2024/01/10 12:56:41;;;;;;;33.63;31.63;;;;;;;;;;5032968;28;20033;-62
2024/01/10 12:59:09;;;;;;;37.80;35.47;;;;;;;;;;5031944;28;20039;-62
2024/01/10 13:01:34;;;;;;;36.95;34.78;;;;;;;;;;5028006;28;20037;-62
2024/01/10 13:04:00;;;;;;;38.40;36.22;;;;;;;;;;5026421;28;20038;-62
2024/01/10 13:06:25;;;;;;;40.00;37.85;;;;;;;;;;5030634;28;20037;-62
2024/01/10 13:08:50;;;;;;;39.17;36.88;;;;;;;;;;5030340;28;20053;-62
2024/01/10 13:11:16;;;;;;;39.03;36.42;;;;;;;;;;5029520;28;20021;-62
2024/01/10 13:13:43;;;;;;;37.92;35.55;;;;;;;;;;5027262;28;20033;-62
2024/01/10 13:16:10;;;;;;;37.28;35.28;;;;;;;;;;5029760;28;20498;-62
2024/01/10 13:18:37;;;;;;;37.78;35.70;;;;;;;;;;5029957;28;20034;-62
2024/01/10 13:21:02;;;;;;;39.10;36.38;;;;;;;;;;5028505;28;20467;-62
2024/01/10 13:23:28;;;;;;;39.60;37.05;;;;;;;;;;5032200;28;20049;-62
2024/01/10 13:25:53;;;;;;;37.15;34.92;;;;;;;;;;5031107;28;20044;-62
2024/01/10 13:28:19;;;;;;;39.60;37.40;;;;;;;;;;5027807;28;20065;-62
2024/01/10 13:30:45;;;;;;;40.47;38.03;;;;;;;;;;5031592;28;20045;-62
2024/01/10 13:33:10;;;;;;;39.03;36.67;;;;;;;;;;5029855;28;20589;-62
2024/01/10 13:35:36;;;;;;;38.60;36.03;;;;;;;;;;5029713;28;20041;-62
2024/01/10 13:38:02;;;;;;;38.80;36.15;;;;;;;;;;5031661;28;20048;-62
2024/01/10 13:40:27;;;;;;;37.35;35.15;;;;;;;;;;5029451;28;20033;-63
2024/01/10 13:42:53;;;;;;;36.70;32.55;;;;;;;;;;5030844;28;20033;-62
2024/01/10 13:45:19;;;;;;;35.72;33.72;;;;;;;;;;5025808;28;20040;-62
2024/01/10 13:47:44;;;;;;;38.10;35.67;;;;;;;;;;5024770;28;20374;-62
2024/01/10 13:50:09;;;;;;;40.63;38.10;;;;;;;;;;5026826;28;20044;-62
2024/01/10 13:52:36;;;;;;;37.20;34.95;;;;;;;;;;5030054;28;20029;-62
2024/01/10 13:55:02;;;;;;;36.03;33.92;;;;;;;;;;5029049;28;20048;-63
2024/01/10 13:57:27;;;;;;;33.63;31.65;;;;;;;;;;5029605;28;20482;-62
2024/01/10 13:59:55;;;;;;;36.25;34.17;;;;;;;;;;5028282;28;20033;-63
2024/01/10 14:02:24;;;;;;;38.25;35.95;;;;;;;;;;5031342;28;20536;-62
2024/01/10 14:04:50;;;;;;;39.22;36.83;;;;;;;;;;5032978;28;20034;-63
2024/01/10 14:07:16;;;;;;;37.97;35.85;;;;;;;;;;5026804;28;20070;-63
2024/01/10 14:09:42;;;;;;;36.78;34.75;;;;;;;;;;5029610;28;20029;-63
2024/01/10 14:12:07;;;;;;;39.53;36.95;;;;;;;;;;5030630;28;20044;-63
2024/01/10 14:14:33;;;;;;;35.83;33.83;;;;;;;;;;5027957;28;20044;-63